createdAt,value
2022-11-24T00:01:09.558Z,83.22
2022-11-24T00:03:41.882Z,83.30
2022-11-24T00:06:16.170Z,83.12
2022-11-24T00:08:49.612Z,82.97
2022-11-24T00:11:24.191Z,82.72
2022-11-24T00:13:56.843Z,82.95
2022-11-24T00:16:30.964Z,83.26
2022-11-24T00:19:05.535Z,83.24
2022-11-24T00:21:38.945Z,83.15
2022-11-24T00:24:13.114Z,83.14
2022-11-24T00:26:45.370Z,82.97
2022-11-24T00:29:15.991Z,82.76
2022-11-24T00:31:48.116Z,82.81
2022-11-24T00:34:18.953Z,82.57
2022-11-24T00:36:51.081Z,82.57
2022-11-24T00:39:23.174Z,82.63
2022-11-24T00:41:55.326Z,82.54
2022-11-24T00:44:27.827Z,82.44
2022-11-24T00:47:00.056Z,82.51
2022-11-24T00:49:32.671Z,82.57
2022-11-24T00:52:03.238Z,82.62
2022-11-24T00:54:35.612Z,82.49
2022-11-24T00:57:07.920Z,82.53
2022-11-24T00:59:40.347Z,82.55
2022-11-24T01:02:12.644Z,82.55
2022-11-24T01:04:43.280Z,82.50
2022-11-24T01:07:15.414Z,82.64
2022-11-24T01:09:46.090Z,82.62
2022-11-24T01:12:18.262Z,82.71
2022-11-24T01:14:48.943Z,82.64
2022-11-24T01:17:21.087Z,82.62
2022-11-24T01:19:51.819Z,82.52
2022-11-24T01:22:26.662Z,82.53
2022-11-24T01:24:59.254Z,82.35
2022-11-24T01:27:31.531Z,82.13
2022-11-24T01:30:02.099Z,81.87
2022-11-24T01:32:36.292Z,81.99
2022-11-24T01:35:10.521Z,81.79
2022-11-24T01:37:42.733Z,81.83
2022-11-24T01:40:13.938Z,82.12
2022-11-24T01:42:50.711Z,82.29
2022-11-24T01:45:42.867Z,82.49
2022-11-24T01:48:22.077Z,82.44
2022-11-24T01:51:03.697Z,82.20
2022-11-24T01:53:36.518Z,82.24
2022-11-24T01:56:10.451Z,82.19
2022-11-24T01:58:44.168Z,82.28
2022-11-24T02:01:16.565Z,82.24
2022-11-24T02:03:50.388Z,82.23
2022-11-24T02:06:26.746Z,82.19
2022-11-24T02:09:03.614Z,82.07
2022-11-24T02:11:39.122Z,82.15
2022-11-24T02:14:15.080Z,82.02
2022-11-24T02:16:52.029Z,82.02
2022-11-24T02:19:37.430Z,82.19
2022-11-24T02:22:15.533Z,82.35
2022-11-24T02:24:53.087Z,81.98
2022-11-24T02:27:25.366Z,81.92
2022-11-24T02:29:55.855Z,82.06
2022-11-24T02:32:28.661Z,82.14
2022-11-24T02:35:05.897Z,82.27
2022-11-24T02:37:38.404Z,82.34
2022-11-24T02:40:15.642Z,82.33
2022-11-24T02:42:48.772Z,82.28
2022-11-24T02:45:22.145Z,82.40
2022-11-24T02:47:54.418Z,82.37
2022-11-24T02:50:25.296Z,82.35
2022-11-24T02:52:57.648Z,82.57
2022-11-24T02:55:28.333Z,82.55
2022-11-24T02:58:00.529Z,82.81
2022-11-24T03:00:31.120Z,82.81
2022-11-24T03:03:03.406Z,83.03
2022-11-24T03:05:35.916Z,83.04
2022-11-24T03:08:08.456Z,83.12
2022-11-24T03:10:40.628Z,83.08
2022-11-24T03:13:11.734Z,82.76
2022-11-24T03:15:43.976Z,83.10
2022-11-24T03:18:16.307Z,82.85
2022-11-24T03:20:48.554Z,83.01
2022-11-24T03:23:20.931Z,83.06
2022-11-24T03:25:53.320Z,83.15
2022-11-24T03:28:25.722Z,83.38
2022-11-24T03:30:56.306Z,83.44
2022-11-24T03:33:28.749Z,83.54
2022-11-24T03:36:01.203Z,83.51
2022-11-24T03:38:32.137Z,83.51
2022-11-24T03:41:04.450Z,83.47
2022-11-24T03:43:41.985Z,83.52
2022-11-24T03:46:15.967Z,83.61
2022-11-24T03:48:48.160Z,83.46
2022-11-24T03:51:18.857Z,83.40
2022-11-24T03:53:51.082Z,83.47
2022-11-24T03:56:21.885Z,83.31
2022-11-24T03:58:54.059Z,83.41
2022-11-24T04:01:24.656Z,83.45
2022-11-24T04:03:56.920Z,83.40
2022-11-24T04:06:27.611Z,83.30
2022-11-24T04:09:00.996Z,83.28
2022-11-24T04:11:50.506Z,83.39
2022-11-24T04:14:22.601Z,83.66
2022-11-24T04:16:54.809Z,83.67
2022-11-24T04:19:26.967Z,83.74
2022-11-24T04:21:57.660Z,83.86
2022-11-24T04:24:29.895Z,83.94
2022-11-24T04:27:00.447Z,83.97
2022-11-24T04:29:32.941Z,84.27
2022-11-24T04:32:03.554Z,84.57
2022-11-24T04:34:36.247Z,84.65
2022-11-24T04:37:08.610Z,84.92
2022-11-24T04:39:39.203Z,84.89
2022-11-24T04:42:11.513Z,85.28
2022-11-24T04:44:43.839Z,85.29
2022-11-24T04:47:23.032Z,85.47
2022-11-24T04:49:55.990Z,85.42
2022-11-24T04:52:28.695Z,85.62
2022-11-24T04:55:01.061Z,85.83
2022-11-24T04:57:31.692Z,85.67
2022-11-24T05:00:04.371Z,85.84
2022-11-24T05:02:36.639Z,85.83
2022-11-24T05:05:08.530Z,85.88
2022-11-24T05:07:40.871Z,85.83
2022-11-24T05:10:30.852Z,85.84
2022-11-24T05:13:05.639Z,85.86
2022-11-24T05:15:38.207Z,85.77
2022-11-24T05:18:12.975Z,85.90
2022-11-24T05:20:45.854Z,86.14
2022-11-24T05:23:18.678Z,86.62
2022-11-24T05:25:51.462Z,86.72
2022-11-24T05:28:23.616Z,86.89
2022-11-24T05:30:56.316Z,87.08
2022-11-24T05:33:30.182Z,87.04
2022-11-24T05:36:05.740Z,86.89
2022-11-24T05:38:38.452Z,86.87
2022-11-24T05:41:10.879Z,87.18
2022-11-24T05:43:42.976Z,87.20
2022-11-24T05:46:15.143Z,87.08
2022-11-24T05:48:48.808Z,86.76
2022-11-24T05:51:21.137Z,86.83
2022-11-24T05:53:51.756Z,86.99
2022-11-24T05:56:23.908Z,87.12
2022-11-24T05:58:56.051Z,87.30
2022-11-24T06:01:26.578Z,87.38
2022-11-24T06:03:58.664Z,87.36
2022-11-24T06:06:30.789Z,87.25
2022-11-24T06:09:01.288Z,87.06
2022-11-24T06:11:33.431Z,87.44
2022-11-24T06:14:08.305Z,87.58
2022-11-24T06:16:43.666Z,87.38
2022-11-24T06:19:16.039Z,87.27
2022-11-24T06:21:48.752Z,87.51
2022-11-24T06:24:20.974Z,87.51
2022-11-24T06:26:53.139Z,87.49
2022-11-24T06:29:23.533Z,87.68
2022-11-24T06:31:55.680Z,87.63
2022-11-24T06:34:28.057Z,87.35
2022-11-24T06:37:01.145Z,87.49
2022-11-24T06:39:33.503Z,87.44
2022-11-24T06:42:06.198Z,87.44
2022-11-24T06:44:38.370Z,87.58
2022-11-24T06:47:10.661Z,87.58
2022-11-24T06:49:41.432Z,87.51
2022-11-24T06:52:13.563Z,87.49
2022-11-24T06:54:44.199Z,87.82
2022-11-24T06:57:16.358Z,87.87
2022-11-24T06:59:46.957Z,87.71
2022-11-24T07:02:19.154Z,87.59
2022-11-24T07:04:49.723Z,87.66
2022-11-24T07:07:21.741Z,87.63
2022-11-24T07:09:53.952Z,87.61
2022-11-24T07:12:25.298Z,87.71
2022-11-24T07:14:57.368Z,88.11
2022-11-24T07:17:29.432Z,88.11
2022-11-24T07:19:59.826Z,88.22
2022-11-24T07:22:31.993Z,88.45
2022-11-24T07:25:07.435Z,88.40
2022-11-24T07:27:39.752Z,88.39
2022-11-24T07:30:13.574Z,88.50
2022-11-24T07:32:45.750Z,88.65
2022-11-24T07:35:16.455Z,88.54
2022-11-24T07:37:48.869Z,88.73
2022-11-24T07:40:19.682Z,88.98
2022-11-24T07:42:51.910Z,88.90
2022-11-24T07:45:24.159Z,88.62
2022-11-24T07:47:56.339Z,88.67
2022-11-24T07:50:28.594Z,88.73
2022-11-24T07:53:01.869Z,88.82
2022-11-24T07:55:34.120Z,89.10
2022-11-24T07:58:06.218Z,89.28
2022-11-24T08:00:36.755Z,88.95
2022-11-24T08:03:08.823Z,89.04
2022-11-24T08:06:00.621Z,89.08
2022-11-24T08:08:34.025Z,89.32
2022-11-24T08:11:11.201Z,89.52
2022-11-24T08:13:43.868Z,89.47
2022-11-24T08:16:18.793Z,89.65
2022-11-24T08:18:54.288Z,89.90
2022-11-24T08:21:26.438Z,89.81
2022-11-24T08:23:59.428Z,89.80
2022-11-24T08:26:31.485Z,90.06
2022-11-24T08:29:03.599Z,90.10
2022-11-24T08:31:36.149Z,89.93
2022-11-24T08:34:08.933Z,90.06
2022-11-24T08:36:40.966Z,90.31
2022-11-24T08:39:13.234Z,90.07
2022-11-24T08:41:45.622Z,90.34
2022-11-24T08:44:18.443Z,90.23
2022-11-24T08:46:51.173Z,89.80
2022-11-24T08:49:23.466Z,90.01
2022-11-24T08:51:53.968Z,89.83
2022-11-24T08:54:28.115Z,90.21
2022-11-24T08:57:00.169Z,90.24
2022-11-24T08:59:32.428Z,89.91
2022-11-24T09:02:03.003Z,89.86
2022-11-24T09:04:35.608Z,89.88
2022-11-24T09:07:08.162Z,90.00
2022-11-24T09:09:40.351Z,89.64
2022-11-24T09:12:14.348Z,89.37
2022-11-24T09:14:47.158Z,89.45
2022-11-24T09:17:17.655Z,89.22
2022-11-24T09:19:49.771Z,89.30
2022-11-24T09:22:21.752Z,89.12
2022-11-24T09:24:53.991Z,88.89
2022-11-24T09:27:24.560Z,89.20
2022-11-24T09:29:56.588Z,89.36
2022-11-24T09:32:29.587Z,89.53
2022-11-24T09:35:02.091Z,89.45
2022-11-24T09:37:35.732Z,89.38
2022-11-24T09:40:11.740Z,89.26
2022-11-24T09:42:53.787Z,88.97
2022-11-24T09:46:03.877Z,88.92
2022-11-24T09:48:33.153Z,88.85
2022-11-24T09:51:06.986Z,88.53
2022-11-24T09:53:44.721Z,88.51
2022-11-24T09:56:21.953Z,88.23
2022-11-24T09:58:56.185Z,88.19
2022-11-24T10:01:31.825Z,88.07
2022-11-24T10:04:06.683Z,87.38
2022-11-24T10:06:45.672Z,87.74
2022-11-24T10:09:29.044Z,87.66
2022-11-24T10:12:14.823Z,87.76
2022-11-24T10:15:06.470Z,87.61
2022-11-24T10:18:02.256Z,87.32
2022-11-24T10:20:46.432Z,87.52
2022-11-24T10:23:39.759Z,87.12
2022-11-24T10:26:19.931Z,86.82
2022-11-24T10:28:56.371Z,86.79
2022-11-24T10:31:33.992Z,86.40
2022-11-24T10:34:13.680Z,86.42
2022-11-24T10:36:52.529Z,86.37
2022-11-24T10:39:35.321Z,86.47
2022-11-24T10:42:17.238Z,86.03
2022-11-24T10:44:59.645Z,86.22
2022-11-24T10:47:32.656Z,86.33
2022-11-24T10:50:12.472Z,86.16
2022-11-24T10:52:49.001Z,86.30
2022-11-24T10:55:21.782Z,86.30
2022-11-24T10:57:54.331Z,86.24
2022-11-24T11:00:35.973Z,86.22
2022-11-24T11:03:22.058Z,86.55
2022-11-24T11:05:57.532Z,86.53
2022-11-24T11:08:31.799Z,86.39
2022-11-24T11:11:23.984Z,86.28
2022-11-24T11:14:03.422Z,86.43
2022-11-24T11:16:40.039Z,86.23
2022-11-24T11:19:58.531Z,86.15
2022-11-24T11:22:31.792Z,86.27
2022-11-24T11:25:19.586Z,86.28
2022-11-24T11:27:51.886Z,86.14
2022-11-24T11:36:21.924Z,85.53
2022-11-24T11:38:52.467Z,85.87
2022-11-24T11:41:29.543Z,85.71
2022-11-24T11:44:12.026Z,85.54
2022-11-24T11:46:43.218Z,84.78
2022-11-24T11:49:15.817Z,84.62
2022-11-24T11:52:15.740Z,84.66
2022-11-24T11:55:09.338Z,84.36
2022-11-24T11:57:51.812Z,84.76
2022-11-24T12:00:24.671Z,84.83
2022-11-24T12:03:26.189Z,84.47
2022-11-24T12:06:08.655Z,84.86
2022-11-24T12:09:18.504Z,84.59
2022-11-24T12:11:49.941Z,84.20
2022-11-24T12:14:30.822Z,84.58
2022-11-24T12:17:12.036Z,84.64
2022-11-24T12:20:04.893Z,84.64
2022-11-24T12:22:44.135Z,83.98
2022-11-24T12:25:26.653Z,83.74
2022-11-24T12:28:10.807Z,83.60
2022-11-24T12:30:51.831Z,83.61
2022-11-24T12:33:38.655Z,84.41
2022-11-24T12:36:25.225Z,84.45
2022-11-24T12:39:06.601Z,84.31
2022-11-24T12:41:59.769Z,84.22
2022-11-24T12:44:48.172Z,84.34
2022-11-24T12:47:23.337Z,83.80
2022-11-24T12:50:04.723Z,83.93
2022-11-24T12:52:41.088Z,83.96
2022-11-24T12:55:19.705Z,84.05
2022-11-24T12:58:00.686Z,84.28
2022-11-24T13:00:38.110Z,84.23
2022-11-24T13:03:22.217Z,84.14
2022-11-24T13:05:58.961Z,84.60
2022-11-24T13:08:32.366Z,84.46
2022-11-24T13:11:39.571Z,84.23
2022-11-24T13:14:16.961Z,84.49
2022-11-24T13:17:21.513Z,84.66
2022-11-24T13:19:47.319Z,84.76
2022-11-24T13:22:26.717Z,84.89
2022-11-24T13:25:18.315Z,85.08
2022-11-24T13:27:53.524Z,85.36
2022-11-24T13:31:10.832Z,85.27
2022-11-24T13:33:43.367Z,85.26
2022-11-24T13:36:33.606Z,85.16
2022-11-24T13:39:19.515Z,85.00
2022-11-24T13:42:42.176Z,84.86
2022-11-24T13:45:04.644Z,84.57
2022-11-24T13:47:47.436Z,84.53
2022-11-24T13:50:47.751Z,84.54
2022-11-24T13:53:28.380Z,84.26
2022-11-24T13:56:05.061Z,84.21
2022-11-24T13:58:39.908Z,84.32
2022-11-24T14:01:20.129Z,84.50
2022-11-24T14:07:06.757Z,84.51
2022-11-24T14:09:44.736Z,84.62
2022-11-24T14:12:21.317Z,84.56
2022-11-24T14:14:55.719Z,84.45
2022-11-24T14:17:29.532Z,84.60
2022-11-24T14:20:01.585Z,84.71
2022-11-24T14:22:36.721Z,84.54
2022-11-24T14:25:20.770Z,84.58
2022-11-24T14:27:52.938Z,84.57
2022-11-24T14:30:25.426Z,84.59
2022-11-24T14:32:56.922Z,84.36
2022-11-24T14:35:30.500Z,84.50
2022-11-24T14:38:05.726Z,84.79
2022-11-24T14:40:46.918Z,84.75
2022-11-24T14:43:29.166Z,84.89
2022-11-24T14:46:00.952Z,84.93
2022-11-24T14:48:37.058Z,85.23
2022-11-24T14:51:15.779Z,85.17
2022-11-24T14:53:51.952Z,85.27
2022-11-24T14:56:29.797Z,85.13
2022-11-24T14:59:02.009Z,85.37
2022-11-24T15:01:36.347Z,85.37
2022-11-24T15:04:32.822Z,85.29
2022-11-24T15:07:19.980Z,85.20
2022-11-24T15:09:58.147Z,85.17
2022-11-24T15:12:34.927Z,85.15
2022-11-24T15:15:18.466Z,85.02
2022-11-24T15:17:52.909Z,85.01
2022-11-24T15:20:30.449Z,84.88
2022-11-24T15:23:24.379Z,84.90
2022-11-24T15:25:57.309Z,84.83
2022-11-24T15:28:30.256Z,84.93
2022-11-24T15:31:05.634Z,84.83
2022-11-24T15:33:37.877Z,84.91
2022-11-24T15:36:12.523Z,84.94
2022-11-24T15:38:44.713Z,84.88
2022-11-24T15:41:21.090Z,84.76
2022-11-24T15:43:59.066Z,84.65
2022-11-24T15:46:38.020Z,84.88
2022-11-24T15:49:10.661Z,84.95
2022-11-24T15:51:44.542Z,84.76
2022-11-24T15:54:18.883Z,84.95
2022-11-24T15:56:51.099Z,85.09
2022-11-24T15:59:23.193Z,85.23
2022-11-24T16:01:55.546Z,85.13
2022-11-24T16:04:28.232Z,85.17
2022-11-24T16:07:00.779Z,85.06
2022-11-24T16:09:33.320Z,84.82
2022-11-24T16:12:05.743Z,84.84
2022-11-24T16:14:38.269Z,85.00
2022-11-24T16:17:10.474Z,84.93
2022-11-24T16:19:42.411Z,85.05
2022-11-24T16:22:14.630Z,85.24
2022-11-24T16:24:45.107Z,85.14
2022-11-24T16:27:17.298Z,85.30
2022-11-24T16:29:50.877Z,85.28
2022-11-24T16:32:23.077Z,85.05
2022-11-24T16:34:53.603Z,84.98
2022-11-24T16:37:25.966Z,85.15
2022-11-24T16:39:58.538Z,85.29
2022-11-24T16:42:31.079Z,84.98
2022-11-24T16:45:03.392Z,85.19
2022-11-24T16:47:42.139Z,85.24
2022-11-24T16:50:15.105Z,85.32
2022-11-24T16:52:47.615Z,85.64
2022-11-24T16:55:19.999Z,85.66
2022-11-24T16:57:52.482Z,85.84
2022-11-24T17:00:24.808Z,85.78
2022-11-24T17:02:57.109Z,85.87
2022-11-24T17:05:29.410Z,85.97
2022-11-24T17:08:01.555Z,85.84
2022-11-24T17:10:32.261Z,85.88
2022-11-24T17:13:04.409Z,85.80
2022-11-24T17:15:40.856Z,85.90
2022-11-24T17:18:24.373Z,85.90
2022-11-24T17:21:03.193Z,85.98
2022-11-24T17:23:38.584Z,85.92
2022-11-24T17:26:12.568Z,85.90
2022-11-24T17:28:45.975Z,86.16
2022-11-24T17:31:22.300Z,86.33
2022-11-24T17:33:56.769Z,86.29
2022-11-24T17:36:29.763Z,86.29
2022-11-24T17:39:04.592Z,86.14
2022-11-24T17:41:37.244Z,85.98
2022-11-24T17:44:08.761Z,86.04
2022-11-24T17:46:41.020Z,86.27
2022-11-24T17:49:14.566Z,86.19
2022-11-24T17:51:50.586Z,86.32
2022-11-24T17:57:14.993Z,86.70
2022-11-24T17:59:47.428Z,86.49
2022-11-24T18:02:19.799Z,86.34
2022-11-24T18:04:50.302Z,86.31
2022-11-24T18:07:22.787Z,86.35
2022-11-24T18:09:54.931Z,86.44
2022-11-24T18:12:27.205Z,86.35
2022-11-24T18:14:57.850Z,86.57
2022-11-24T18:17:30.342Z,86.70
2022-11-24T18:20:02.519Z,86.67
2022-11-24T18:23:04.118Z,86.73
2022-11-24T18:25:27.340Z,86.90
2022-11-24T18:27:58.102Z,86.86
2022-11-24T18:30:30.283Z,87.06
2022-11-24T18:33:02.635Z,86.93
2022-11-24T18:35:33.411Z,86.97
2022-11-24T18:38:05.937Z,87.07
2022-11-24T18:40:41.793Z,87.05
2022-11-24T18:43:14.645Z,87.14
2022-11-24T18:45:47.891Z,87.09
2022-11-24T18:48:20.845Z,87.01
2022-11-24T18:50:55.382Z,86.92
2022-11-24T18:53:30.051Z,86.80
2022-11-24T18:56:03.781Z,86.65
2022-11-24T18:58:37.255Z,86.76
2022-11-24T19:01:11.344Z,86.98
2022-11-24T19:03:48.753Z,86.87
2022-11-24T19:06:24.155Z,86.85
2022-11-24T19:08:57.418Z,86.73
2022-11-24T19:11:34.020Z,86.66
2022-11-24T19:14:08.884Z,86.88
2022-11-24T19:16:41.863Z,86.90
2022-11-24T19:19:17.808Z,87.00
2022-11-24T19:21:50.720Z,87.10
2022-11-24T19:24:23.026Z,87.07
2022-11-24T19:26:55.541Z,86.99
2022-11-24T19:29:28.321Z,87.25
2022-11-24T19:32:00.610Z,87.04
2022-11-24T19:34:33.749Z,87.15
2022-11-24T19:37:06.417Z,87.19
2022-11-24T19:39:38.820Z,87.32
2022-11-24T19:42:11.141Z,87.26
2022-11-24T19:44:41.731Z,87.20
2022-11-24T19:47:13.780Z,87.11
2022-11-24T19:49:45.962Z,87.24
2022-11-24T19:52:18.658Z,87.26
2022-11-24T19:54:50.797Z,87.29
2022-11-24T19:57:21.330Z,87.25
2022-11-24T19:59:53.894Z,87.22
2022-11-24T20:02:28.105Z,87.42
2022-11-24T20:05:00.925Z,87.59
2022-11-24T20:07:33.390Z,87.59
2022-11-24T20:10:08.582Z,87.49
2022-11-24T20:12:41.331Z,87.37
2022-11-24T20:15:12.375Z,87.24
2022-11-24T20:17:44.763Z,87.51
2022-11-24T20:20:16.158Z,87.51
2022-11-24T20:22:48.349Z,87.37
2022-11-24T20:25:20.937Z,87.23
2022-11-24T20:27:53.391Z,87.28
2022-11-24T20:30:25.447Z,87.27
2022-11-24T20:32:57.862Z,87.38
2022-11-24T20:35:30.652Z,87.53
2022-11-24T20:38:03.136Z,87.74
2022-11-24T20:40:35.371Z,87.59
2022-11-24T20:43:08.219Z,87.60
2022-11-24T20:45:40.566Z,87.61
2022-11-24T20:48:12.867Z,87.38
2022-11-24T20:50:48.313Z,87.14
2022-11-24T20:53:23.253Z,87.20
2022-11-24T20:56:05.618Z,87.30
2022-11-24T20:58:39.528Z,87.60
2022-11-24T21:01:14.032Z,87.61
2022-11-24T21:03:47.537Z,87.33
2022-11-24T21:06:20.112Z,87.50
2022-11-24T21:08:52.608Z,87.46
2022-11-24T21:11:26.175Z,87.53
2022-11-24T21:13:58.873Z,87.72
2022-11-24T21:16:33.094Z,87.53
2022-11-24T21:19:07.684Z,87.19
2022-11-24T21:21:42.805Z,86.93
2022-11-24T21:24:17.167Z,86.78
2022-11-24T21:26:52.817Z,86.89
2022-11-24T21:29:25.743Z,86.94
2022-11-24T21:31:57.984Z,86.91
2022-11-24T21:34:28.974Z,87.07
2022-11-24T21:37:01.395Z,87.05
2022-11-24T21:39:33.618Z,86.97
2022-11-24T21:42:05.969Z,86.97
2022-11-24T21:44:38.243Z,87.35
2022-11-24T21:47:10.308Z,87.33
2022-11-24T21:49:40.863Z,87.25
2022-11-24T21:52:12.856Z,87.36
2022-11-24T21:54:43.563Z,87.56
2022-11-24T21:57:15.661Z,87.56
2022-11-24T21:59:47.732Z,87.53
2022-11-24T22:02:19.920Z,87.17
2022-11-24T22:04:52.118Z,87.20
2022-11-24T22:07:24.148Z,87.22
2022-11-24T22:09:55.790Z,87.49
2022-11-24T22:12:28.041Z,87.66
2022-11-24T22:14:58.601Z,87.64
2022-11-24T22:17:32.697Z,87.45
2022-11-24T22:20:05.170Z,87.12
2022-11-24T22:22:37.331Z,87.17
2022-11-24T22:25:08.515Z,87.30
2022-11-24T22:27:40.574Z,87.05
2022-11-24T22:30:13.882Z,87.50
2022-11-24T22:32:46.050Z,87.67
2022-11-24T22:35:16.800Z,87.59
2022-11-24T22:37:48.906Z,87.32
2022-11-24T22:40:21.333Z,87.25
2022-11-24T22:42:55.737Z,87.41
2022-11-24T22:45:27.893Z,87.44
2022-11-24T22:47:58.406Z,87.42
2022-11-24T22:50:30.509Z,87.53
2022-11-24T22:53:02.555Z,87.44
2022-11-24T22:55:33.038Z,87.66
2022-11-24T22:58:05.098Z,87.64
2022-11-24T23:00:37.188Z,87.62
2022-11-24T23:03:07.794Z,87.55
2022-11-24T23:05:40.440Z,87.79
2022-11-24T23:08:12.999Z,87.85
2022-11-24T23:10:45.162Z,87.72
2022-11-24T23:13:18.243Z,87.82
2022-11-24T23:15:50.226Z,87.96
2022-11-24T23:18:20.758Z,88.06
2022-11-24T23:20:52.913Z,88.10
2022-11-24T23:23:24.978Z,87.98
2022-11-24T23:25:57.035Z,87.83
2022-11-24T23:28:29.121Z,87.71
2022-11-24T23:31:02.999Z,87.59
2022-11-24T23:33:35.391Z,87.68
2022-11-24T23:36:09.312Z,87.86
2022-11-24T23:38:41.771Z,87.83
2022-11-24T23:41:15.898Z,87.75
2022-11-24T23:43:48.001Z,87.79
2022-11-24T23:46:21.138Z,88.00
2022-11-24T23:48:55.627Z,88.13
2022-11-24T23:51:29.539Z,88.21
2022-11-24T23:54:02.417Z,88.27
2022-11-24T23:56:35.287Z,88.29
2022-11-24T23:59:07.557Z,88.04
